Seikkailu — OJ2717 — position and weather

sailwx.info

Track history (hours):
 
Tides and Currents Weather Stations Pressure Air Temp Water Temp Dewpoint Dewpoint Depression Visibility Wind Speed Wind Dir Waves Ship Positions

Seikkailu

Last reported at 2017-Jun-22 07:42 UTC. Time now 2017-Jun-28 10:45 UTC.
Position N 59°54' E 023°20'.

Length 10 m.

Type: Pleasure craft. MMSI: 230120280.

Date/timePositionNaut miles runAvg speedWind from/ knotsBaromVisibWave heightAir tempDewpointWater temp
2017-Jun-22 07:42N 59°54' E 023°20'1 3.2
2017-Jun-22 07:27N 59°55' E 023°21'2 4.5
2017-Jun-22 07:00N 59°54' E 023°24'0 0.3
2017-Jun-22 06:29N 59°54' E 023°25'0 0.0
2017-Jun-22 05:59N 59°54' E 023°25'0 0.0
2017-Jun-22 05:29N 59°54' E 023°25'0 0.0
2017-Jun-22 04:59N 59°54' E 023°25'0 0.0
2017-Jun-22 04:29N 59°54' E 023°25'0 0.0
2017-Jun-22 03:59N 59°54' E 023°25'0 0.0
2017-Jun-22 03:29N 59°54' E 023°25'0 0.0
2017-Jun-22 02:59N 59°54' E 023°25'0 0.0
2017-Jun-22 02:29N 59°54' E 023°25'0 0.0
2017-Jun-22 01:59N 59°54' E 023°25'0 0.0
2017-Jun-22 01:26N 59°54' E 023°25'0 0.0
2017-Jun-22 00:59N 59°54' E 023°25'0 0.0
2017-Jun-22 00:29N 59°54' E 023°25'0 0.0
2017-Jun-21 23:59N 59°54' E 023°25'0 0.0
2017-Jun-21 23:29N 59°54' E 023°25'0 0.0
2017-Jun-21 22:59N 59°54' E 023°25'0 0.0
2017-Jun-21 22:29N 59°54' E 023°25'0 0.0
2017-Jun-21 21:59N 59°54' E 023°25'0 0.0
2017-Jun-21 21:29N 59°54' E 023°25'0 0.0
2017-Jun-21 20:59N 59°54' E 023°25'0 0.0
2017-Jun-21 20:29N 59°54' E 023°25'0 0.0
2017-Jun-21 19:59N 59°54' E 023°25'0 0.0
2017-Jun-21 19:29N 59°54' E 023°25'0 0.0
2017-Jun-21 18:59N 59°54' E 023°25'0 0.0
2017-Jun-21 18:29N 59°54' E 023°25'0 0.0
2017-Jun-21 17:59N 59°54' E 023°25'0 0.0
2017-Jun-21 17:29N 59°54' E 023°25'0 0.0
2017-Jun-21 16:56N 59°54' E 023°25'0 0.0
2017-Jun-21 16:29N 59°54' E 023°25'0 0.0
2017-Jun-21 15:59N 59°54' E 023°25'0 0.0
2017-Jun-21 15:29N 59°54' E 023°25'0 0.0
2017-Jun-21 14:59N 59°54' E 023°25'0 0.0
2017-Jun-21 14:29N 59°54' E 023°25'0 0.0
2017-Jun-21 13:29N 59°54' E 023°25'0 0.0
2017-Jun-21 12:59N 59°54' E 023°25'0 0.0
2017-Jun-21 12:29N 59°54' E 023°25'0 0.9
2017-Jun-21 12:00N 59°54' E 023°24'1 1.4
2017-Jun-21 11:30N 59°55' E 023°24'2 5.0
2017-Jun-21 11:00N 59°55' E 023°29'2 4.8
2017-Jun-21 10:30N 59°56' E 023°34'2 4.5
2017-Jun-21 10:00N 59°56' E 023°38'3 4.5
2017-Jun-21 09:26N 59°56' E 023°43'2 3.8
2017-Jun-21 09:00N 59°55' E 023°46'2 4.6
2017-Jun-21 08:30N 59°57' E 023°49'  
Track history (hours):
 
Tides and Currents Weather Stations Pressure Air Temp Water Temp Dewpoint Dewpoint Depression Visibility Wind Speed Wind Dir Waves Ship Positions

Seikkailu

Last reported at 2017-Jun-22 07:42 UTC. Time now 2017-Jun-28 10:45 UTC.
Position N 59°54' E 023°20'.

Length 10 m.

Type: Pleasure craft. MMSI: 230120280.

Date/timePositionNaut miles runAvg speedWind from/ knotsBaromVisibWave heightAir tempDewpointWater temp
2017-Jun-22 07:42N 59°54' E 023°20'1 3.2
2017-Jun-22 07:27N 59°55' E 023°21'2 4.5
2017-Jun-22 07:00N 59°54' E 023°24'0 0.3
2017-Jun-22 06:29N 59°54' E 023°25'0 0.0
2017-Jun-22 05:59N 59°54' E 023°25'0 0.0
2017-Jun-22 05:29N 59°54' E 023°25'0 0.0
2017-Jun-22 04:59N 59°54' E 023°25'0 0.0
2017-Jun-22 04:29N 59°54' E 023°25'0 0.0
2017-Jun-22 03:59N 59°54' E 023°25'0 0.0
2017-Jun-22 03:29N 59°54' E 023°25'0 0.0
2017-Jun-22 02:59N 59°54' E 023°25'0 0.0
2017-Jun-22 02:29N 59°54' E 023°25'0 0.0
2017-Jun-22 01:59N 59°54' E 023°25'0 0.0
2017-Jun-22 01:26N 59°54' E 023°25'0 0.0
2017-Jun-22 00:59N 59°54' E 023°25'0 0.0
2017-Jun-22 00:29N 59°54' E 023°25'0 0.0
2017-Jun-21 23:59N 59°54' E 023°25'0 0.0
2017-Jun-21 23:29N 59°54' E 023°25'0 0.0
2017-Jun-21 22:59N 59°54' E 023°25'0 0.0
2017-Jun-21 22:29N 59°54' E 023°25'0 0.0
2017-Jun-21 21:59N 59°54' E 023°25'0 0.0
2017-Jun-21 21:29N 59°54' E 023°25'0 0.0
2017-Jun-21 20:59N 59°54' E 023°25'0 0.0
2017-Jun-21 20:29N 59°54' E 023°25'0 0.0
2017-Jun-21 19:59N 59°54' E 023°25'0 0.0
2017-Jun-21 19:29N 59°54' E 023°25'0 0.0
2017-Jun-21 18:59N 59°54' E 023°25'0 0.0
2017-Jun-21 18:29N 59°54' E 023°25'0 0.0
2017-Jun-21 17:59N 59°54' E 023°25'0 0.0
2017-Jun-21 17:29N 59°54' E 023°25'0 0.0
2017-Jun-21 16:56N 59°54' E 023°25'0 0.0
2017-Jun-21 16:29N 59°54' E 023°25'0 0.0
2017-Jun-21 15:59N 59°54' E 023°25'0 0.0
2017-Jun-21 15:29N 59°54' E 023°25'0 0.0
2017-Jun-21 14:59N 59°54' E 023°25'0 0.0
2017-Jun-21 14:29N 59°54' E 023°25'0 0.0
2017-Jun-21 13:29N 59°54' E 023°25'0 0.0
2017-Jun-21 12:59N 59°54' E 023°25'0 0.0
2017-Jun-21 12:29N 59°54' E 023°25'0 0.9
2017-Jun-21 12:00N 59°54' E 023°24'1 1.4
2017-Jun-21 11:30N 59°55' E 023°24'2 5.0
2017-Jun-21 11:00N 59°55' E 023°29'2 4.8
2017-Jun-21 10:30N 59°56' E 023°34'2 4.5
2017-Jun-21 10:00N 59°56' E 023°38'3 4.5
2017-Jun-21 09:26N 59°56' E 023°43'2 3.8
2017-Jun-21 09:00N 59°55' E 023°46'2 4.6
2017-Jun-21 08:30N 59°57' E 023°49'  

Dump ship's entire track history